Darin Adrian — WDE6485 — position and weather

sailwx.info

Track history (hours):
 
Tides and Currents Weather Stations Pressure Air Temp Water Temp Dewpoint Dewpoint Depression Visibility Wind Speed Wind Dir Waves Ship Positions

Darin Adrian

Owner: Marquette Transportation Company LLC, Paducah, KY. More information available from US FCC via Universal Licensing System and Coast Guard Vessel Documentation Center.

Last reported at 2018-Feb-18 16:12 UTC. Time now 2018-Feb-20 13:16 UTC.
Position N 31°60' W 091°05'.

Length 50 m; draft 3.4 m.

Type: Towing. MMSI: 367380840.

Date/timePositionNaut miles runAvg speedWind from/ knotsBaromVisibWave heightAir tempDewpointWater temp
2018-Feb-18 16:12N 31°60' W 091°05'310.0
2018-Feb-18 15:54N 32°03' W 091°04'4 8.5
2018-Feb-18 15:25N 32°06' W 091°06'2 4.1
2018-Feb-18 15:00N 32°08' W 091°06'3 6.7
2018-Feb-18 14:30N 32°07' W 091°02'4 8.0
2018-Feb-18 14:00N 32°11' W 090°60'5 9.4
2018-Feb-18 13:30N 32°15' W 090°59'5 9.4
2018-Feb-18 13:00N 32°18' W 090°55'3 6.2
2018-Feb-18 12:30N 32°21' W 090°57'3 6.5
2018-Feb-18 12:00N 32°23' W 090°60'4 7.0
2018-Feb-18 11:30N 32°26' W 091°02'5 9.2
2018-Feb-18 11:00N 32°28' W 091°07'5 9.1
2018-Feb-18 10:29N 32°33' W 091°06'  
Track history (hours):
 
Tides and Currents Weather Stations Pressure Air Temp Water Temp Dewpoint Dewpoint Depression Visibility Wind Speed Wind Dir Waves Ship Positions

Darin Adrian

Owner: Marquette Transportation Company LLC, Paducah, KY. More information available from US FCC via Universal Licensing System and Coast Guard Vessel Documentation Center.

Last reported at 2018-Feb-18 16:12 UTC. Time now 2018-Feb-20 13:16 UTC.
Position N 31°60' W 091°05'.

Length 50 m; draft 3.4 m.

Type: Towing. MMSI: 367380840.

Date/timePositionNaut miles runAvg speedWind from/ knotsBaromVisibWave heightAir tempDewpointWater temp
2018-Feb-18 16:12N 31°60' W 091°05'310.0
2018-Feb-18 15:54N 32°03' W 091°04'4 8.5
2018-Feb-18 15:25N 32°06' W 091°06'2 4.1
2018-Feb-18 15:00N 32°08' W 091°06'3 6.7
2018-Feb-18 14:30N 32°07' W 091°02'4 8.0
2018-Feb-18 14:00N 32°11' W 090°60'5 9.4
2018-Feb-18 13:30N 32°15' W 090°59'5 9.4
2018-Feb-18 13:00N 32°18' W 090°55'3 6.2
2018-Feb-18 12:30N 32°21' W 090°57'3 6.5
2018-Feb-18 12:00N 32°23' W 090°60'4 7.0
2018-Feb-18 11:30N 32°26' W 091°02'5 9.2
2018-Feb-18 11:00N 32°28' W 091°07'5 9.1
2018-Feb-18 10:29N 32°33' W 091°06'  

Dump ship's entire track history